sensor_id;sensor_type;location;lat;lon;timestamp;temperature;humidity
76172;DHT22;64929;51.178;4.138;2023-05-07T00:01:43;18.00;81.40
76172;DHT22;64929;51.178;4.138;2023-05-07T00:04:09;18.00;81.40
76172;DHT22;64929;51.178;4.138;2023-05-07T00:06:34;17.90;81.00
76172;DHT22;64929;51.178;4.138;2023-05-07T00:09:00;18.00;81.00
76172;DHT22;64929;51.178;4.138;2023-05-07T00:11:27;17.90;81.00
76172;DHT22;64929;51.178;4.138;2023-05-07T00:13:53;17.90;81.00
76172;DHT22;64929;51.178;4.138;2023-05-07T00:16:19;17.90;81.10
76172;DHT22;64929;51.178;4.138;2023-05-07T00:18:45;17.80;81.50
76172;DHT22;64929;51.178;4.138;2023-05-07T00:21:11;17.80;81.70
76172;DHT22;64929;51.178;4.138;2023-05-07T00:23:37;18.00;81.00
76172;DHT22;64929;51.178;4.138;2023-05-07T00:26:03;18.10;80.60
76172;DHT22;64929;51.178;4.138;2023-05-07T00:28:29;17.90;81.60
76172;DHT22;64929;51.178;4.138;2023-05-07T00:30:55;17.80;82.00
76172;DHT22;64929;51.178;4.138;2023-05-07T00:33:21;17.90;81.50
76172;DHT22;64929;51.178;4.138;2023-05-07T00:35:47;17.80;81.80
76172;DHT22;64929;51.178;4.138;2023-05-07T00:38:13;17.80;81.90
76172;DHT22;64929;51.178;4.138;2023-05-07T00:40:39;17.90;81.70
76172;DHT22;64929;51.178;4.138;2023-05-07T00:43:05;17.90;81.30
76172;DHT22;64929;51.178;4.138;2023-05-07T00:45:31;17.90;81.10
76172;DHT22;64929;51.178;4.138;2023-05-07T00:48:01;17.80;81.30
76172;DHT22;64929;51.178;4.138;2023-05-07T00:50:28;17.80;81.20
76172;DHT22;64929;51.178;4.138;2023-05-07T00:52:54;17.80;81.30
76172;DHT22;64929;51.178;4.138;2023-05-07T00:55:23;17.80;81.70
76172;DHT22;64929;51.178;4.138;2023-05-07T00:57:50;17.80;81.40
76172;DHT22;64929;51.178;4.138;2023-05-07T01:00:16;17.80;81.40
76172;DHT22;64929;51.178;4.138;2023-05-07T01:02:44;17.70;81.50
76172;DHT22;64929;51.178;4.138;2023-05-07T01:05:13;17.70;81.60
76172;DHT22;64929;51.178;4.138;2023-05-07T01:07:40;17.60;82.00
76172;DHT22;64929;51.178;4.138;2023-05-07T01:10:07;17.70;81.70
76172;DHT22;64929;51.178;4.138;2023-05-07T01:12:35;17.60;82.20
76172;DHT22;64929;51.178;4.138;2023-05-07T01:15:02;17.60;81.90
76172;DHT22;64929;51.178;4.138;2023-05-07T01:17:28;17.50;82.30
76172;DHT22;64929;51.178;4.138;2023-05-07T01:19:54;17.60;81.80
76172;DHT22;64929;51.178;4.138;2023-05-07T01:22:39;17.60;82.00
76172;DHT22;64929;51.178;4.138;2023-05-07T01:25:06;17.60;82.30
76172;DHT22;64929;51.178;4.138;2023-05-07T01:27:32;17.50;82.60
76172;DHT22;64929;51.178;4.138;2023-05-07T01:30:03;17.40;82.70
76172;DHT22;64929;51.178;4.138;2023-05-07T01:32:33;17.50;82.90
76172;DHT22;64929;51.178;4.138;2023-05-07T01:35:03;17.50;82.50
76172;DHT22;64929;51.178;4.138;2023-05-07T01:37:30;17.40;83.20
76172;DHT22;64929;51.178;4.138;2023-05-07T01:39:56;17.40;83.10
76172;DHT22;64929;51.178;4.138;2023-05-07T01:42:22;17.40;83.20
76172;DHT22;64929;51.178;4.138;2023-05-07T01:44:48;17.40;82.90
76172;DHT22;64929;51.178;4.138;2023-05-07T01:47:14;17.40;82.50
76172;DHT22;64929;51.178;4.138;2023-05-07T01:49:41;17.30;83.50
76172;DHT22;64929;51.178;4.138;2023-05-07T01:52:10;17.20;83.40
76172;DHT22;64929;51.178;4.138;2023-05-07T01:54:36;17.20;83.90
76172;DHT22;64929;51.178;4.138;2023-05-07T01:57:02;17.20;84.30
76172;DHT22;64929;51.178;4.138;2023-05-07T01:59:27;17.30;83.90
76172;DHT22;64929;51.178;4.138;2023-05-07T02:01:53;17.20;83.90
76172;DHT22;64929;51.178;4.138;2023-05-07T02:04:19;17.10;84.60
76172;DHT22;64929;51.178;4.138;2023-05-07T02:06:44;17.20;84.30
76172;DHT22;64929;51.178;4.138;2023-05-07T02:09:11;17.10;84.50
76172;DHT22;64929;51.178;4.138;2023-05-07T02:11:36;17.10;84.40
76172;DHT22;64929;51.178;4.138;2023-05-07T02:14:02;17.20;84.20
76172;DHT22;64929;51.178;4.138;2023-05-07T02:16:27;17.30;83.90
76172;DHT22;64929;51.178;4.138;2023-05-07T02:18:53;17.40;83.30
76172;DHT22;64929;51.178;4.138;2023-05-07T02:21:19;17.20;84.00
76172;DHT22;64929;51.178;4.138;2023-05-07T02:23:45;17.10;84.60
76172;DHT22;64929;51.178;4.138;2023-05-07T02:26:13;17.30;83.60
76172;DHT22;64929;51.178;4.138;2023-05-07T02:28:39;17.30;84.10
76172;DHT22;64929;51.178;4.138;2023-05-07T02:31:05;17.30;84.30
76172;DHT22;64929;51.178;4.138;2023-05-07T02:33:30;17.20;84.60
76172;DHT22;64929;51.178;4.138;2023-05-07T02:35:56;17.20;84.60
76172;DHT22;64929;51.178;4.138;2023-05-07T02:38:23;17.30;84.00
76172;DHT22;64929;51.178;4.138;2023-05-07T02:40:48;17.30;84.20
76172;DHT22;64929;51.178;4.138;2023-05-07T02:43:14;17.20;84.50
76172;DHT22;64929;51.178;4.138;2023-05-07T02:45:40;17.20;84.90
76172;DHT22;64929;51.178;4.138;2023-05-07T02:48:06;17.30;84.10
76172;DHT22;64929;51.178;4.138;2023-05-07T02:50:31;17.10;84.60
76172;DHT22;64929;51.178;4.138;2023-05-07T02:52:58;17.00;85.10
76172;DHT22;64929;51.178;4.138;2023-05-07T02:55:23;17.10;84.90
76172;DHT22;64929;51.178;4.138;2023-05-07T02:57:49;17.20;84.50
76172;DHT22;64929;51.178;4.138;2023-05-07T03:00:17;17.10;84.90
76172;DHT22;64929;51.178;4.138;2023-05-07T03:02:46;17.10;85.20
76172;DHT22;64929;51.178;4.138;2023-05-07T03:05:12;17.10;85.50
76172;DHT22;64929;51.178;4.138;2023-05-07T03:07:38;17.00;85.50
76172;DHT22;64929;51.178;4.138;2023-05-07T03:10:04;17.10;85.30
76172;DHT22;64929;51.178;4.138;2023-05-07T03:12:30;17.10;85.10
76172;DHT22;64929;51.178;4.138;2023-05-07T03:14:56;17.10;85.40
76172;DHT22;64929;51.178;4.138;2023-05-07T03:17:22;17.00;85.90
76172;DHT22;64929;51.178;4.138;2023-05-07T03:19:48;17.00;85.80
76172;DHT22;64929;51.178;4.138;2023-05-07T03:22:14;17.10;85.70
76172;DHT22;64929;51.178;4.138;2023-05-07T03:24:40;17.00;85.60
76172;DHT22;64929;51.178;4.138;2023-05-07T03:27:05;17.10;85.70
76172;DHT22;64929;51.178;4.138;2023-05-07T03:29:31;17.10;85.80
76172;DHT22;64929;51.178;4.138;2023-05-07T03:31:57;17.10;85.60
76172;DHT22;64929;51.178;4.138;2023-05-07T03:34:22;17.00;85.80
76172;DHT22;64929;51.178;4.138;2023-05-07T03:36:48;17.10;85.70
76172;DHT22;64929;51.178;4.138;2023-05-07T03:39:14;17.10;85.50
76172;DHT22;64929;51.178;4.138;2023-05-07T03:41:40;17.20;85.50
76172;DHT22;64929;51.178;4.138;2023-05-07T03:44:06;17.10;85.50
76172;DHT22;64929;51.178;4.138;2023-05-07T03:46:32;17.30;85.10
76172;DHT22;64929;51.178;4.138;2023-05-07T03:48:58;17.30;85.10
76172;DHT22;64929;51.178;4.138;2023-05-07T03:51:24;17.30;85.10
76172;DHT22;64929;51.178;4.138;2023-05-07T03:53:50;17.20;85.10
76172;DHT22;64929;51.178;4.138;2023-05-07T03:56:18;17.20;85.30
76172;DHT22;64929;51.178;4.138;2023-05-07T03:58:44;17.30;84.80
76172;DHT22;64929;51.178;4.138;2023-05-07T04:01:10;17.20;85.10
76172;DHT22;64929;51.178;4.138;2023-05-07T04:03:37;17.30;84.80
76172;DHT22;64929;51.178;4.138;2023-05-07T04:06:02;17.20;85.40
76172;DHT22;64929;51.178;4.138;2023-05-07T04:08:28;17.10;85.50
76172;DHT22;64929;51.178;4.138;2023-05-07T04:10:57;17.10;85.40
76172;DHT22;64929;51.178;4.138;2023-05-07T04:13:24;17.30;85.20
76172;DHT22;64929;51.178;4.138;2023-05-07T04:15:50;17.30;85.10
76172;DHT22;64929;51.178;4.138;2023-05-07T04:18:15;17.10;85.90
76172;DHT22;64929;51.178;4.138;2023-05-07T04:20:41;17.00;86.30
76172;DHT22;64929;51.178;4.138;2023-05-07T04:23:07;17.10;86.10
76172;DHT22;64929;51.178;4.138;2023-05-07T04:25:33;17.10;86.10
76172;DHT22;64929;51.178;4.138;2023-05-07T04:27:59;17.20;85.90
76172;DHT22;64929;51.178;4.138;2023-05-07T04:30:25;17.30;85.70
76172;DHT22;64929;51.178;4.138;2023-05-07T04:32:51;17.30;85.60
76172;DHT22;64929;51.178;4.138;2023-05-07T04:35:18;17.30;85.70
76172;DHT22;64929;51.178;4.138;2023-05-07T04:37:43;17.30;85.30
76172;DHT22;64929;51.178;4.138;2023-05-07T04:40:09;17.20;85.60
76172;DHT22;64929;51.178;4.138;2023-05-07T04:42:35;17.20;85.90
76172;DHT22;64929;51.178;4.138;2023-05-07T04:45:02;17.30;85.90
76172;DHT22;64929;51.178;4.138;2023-05-07T04:47:28;17.20;86.10
76172;DHT22;64929;51.178;4.138;2023-05-07T04:49:53;17.30;86.10
76172;DHT22;64929;51.178;4.138;2023-05-07T04:52:19;17.40;85.50
76172;DHT22;64929;51.178;4.138;2023-05-07T04:54:45;17.30;85.90
76172;DHT22;64929;51.178;4.138;2023-05-07T04:57:11;17.30;86.00
76172;DHT22;64929;51.178;4.138;2023-05-07T04:59:37;17.30;86.00
76172;DHT22;64929;51.178;4.138;2023-05-07T05:02:02;17.40;86.20
76172;DHT22;64929;51.178;4.138;2023-05-07T05:04:29;17.40;85.80
76172;DHT22;64929;51.178;4.138;2023-05-07T05:06:55;17.40;85.90
76172;DHT22;64929;51.178;4.138;2023-05-07T05:09:21;17.50;85.80
76172;DHT22;64929;51.178;4.138;2023-05-07T05:11:46;17.60;85.70
76172;DHT22;64929;51.178;4.138;2023-05-07T05:14:12;17.50;85.80
76172;DHT22;64929;51.178;4.138;2023-05-07T05:16:38;17.60;85.80
76172;DHT22;64929;51.178;4.138;2023-05-07T05:19:03;17.60;85.90
76172;DHT22;64929;51.178;4.138;2023-05-07T05:21:30;17.60;85.90
76172;DHT22;64929;51.178;4.138;2023-05-07T05:23:56;17.60;86.10
76172;DHT22;64929;51.178;4.138;2023-05-07T05:26:21;17.60;86.00
76172;DHT22;64929;51.178;4.138;2023-05-07T05:28:47;17.60;86.20
76172;DHT22;64929;51.178;4.138;2023-05-07T05:31:13;17.60;86.10
76172;DHT22;64929;51.178;4.138;2023-05-07T05:33:39;17.70;86.10
76172;DHT22;64929;51.178;4.138;2023-05-07T05:36:06;17.70;86.30
76172;DHT22;64929;51.178;4.138;2023-05-07T05:38:32;17.70;86.20
76172;DHT22;64929;51.178;4.138;2023-05-07T05:40:57;17.80;85.90
76172;DHT22;64929;51.178;4.138;2023-05-07T05:43:23;17.80;86.50
76172;DHT22;64929;51.178;4.138;2023-05-07T05:45:49;17.80;86.00
76172;DHT22;64929;51.178;4.138;2023-05-07T05:48:14;18.00;85.50
76172;DHT22;64929;51.178;4.138;2023-05-07T05:50:42;18.00;86.20
76172;DHT22;64929;51.178;4.138;2023-05-07T05:53:07;18.10;85.60
76172;DHT22;64929;51.178;4.138;2023-05-07T05:55:34;18.00;86.30
76172;DHT22;64929;51.178;4.138;2023-05-07T05:58:00;17.80;86.90
76172;DHT22;64929;51.178;4.138;2023-05-07T06:00:27;17.80;86.80
76172;DHT22;64929;51.178;4.138;2023-05-07T06:02:53;18.00;86.20
76172;DHT22;64929;51.178;4.138;2023-05-07T06:05:18;18.10;85.30
76172;DHT22;64929;51.178;4.138;2023-05-07T06:07:44;17.90;86.80
76172;DHT22;64929;51.178;4.138;2023-05-07T06:10:10;17.90;86.50
76172;DHT22;64929;51.178;4.138;2023-05-07T06:12:35;18.00;86.50
76172;DHT22;64929;51.178;4.138;2023-05-07T06:15:01;18.00;86.10
76172;DHT22;64929;51.178;4.138;2023-05-07T06:17:27;17.90;86.20
76172;DHT22;64929;51.178;4.138;2023-05-07T06:19:53;18.10;86.00
76172;DHT22;64929;51.178;4.138;2023-05-07T06:22:19;18.00;87.00
76172;DHT22;64929;51.178;4.138;2023-05-07T06:24:44;18.00;87.10
76172;DHT22;64929;51.178;4.138;2023-05-07T06:27:10;18.10;86.10
76172;DHT22;64929;51.178;4.138;2023-05-07T06:29:36;18.20;84.50
76172;DHT22;64929;51.178;4.138;2023-05-07T06:32:09;18.20;84.80
76172;DHT22;64929;51.178;4.138;2023-05-07T06:34:35;18.20;85.30
76172;DHT22;64929;51.178;4.138;2023-05-07T06:37:01;18.30;85.40
76172;DHT22;64929;51.178;4.138;2023-05-07T06:39:26;18.30;84.90
76172;DHT22;64929;51.178;4.138;2023-05-07T06:41:52;18.30;85.00
76172;DHT22;64929;51.178;4.138;2023-05-07T06:44:18;18.40;85.50
76172;DHT22;64929;51.178;4.138;2023-05-07T06:46:44;18.30;85.60
76172;DHT22;64929;51.178;4.138;2023-05-07T06:49:10;18.10;85.40
76172;DHT22;64929;51.178;4.138;2023-05-07T06:51:36;18.30;84.80
76172;DHT22;64929;51.178;4.138;2023-05-07T06:54:02;18.50;83.80
76172;DHT22;64929;51.178;4.138;2023-05-07T06:56:29;18.40;83.80
76172;DHT22;64929;51.178;4.138;2023-05-07T06:58:55;18.40;84.40
76172;DHT22;64929;51.178;4.138;2023-05-07T07:01:21;18.40;84.30
76172;DHT22;64929;51.178;4.138;2023-05-07T07:03:46;18.40;84.50
76172;DHT22;64929;51.178;4.138;2023-05-07T07:06:12;18.30;85.10
76172;DHT22;64929;51.178;4.138;2023-05-07T07:08:38;18.50;83.20
76172;DHT22;64929;51.178;4.138;2023-05-07T07:11:10;18.50;83.20
76172;DHT22;64929;51.178;4.138;2023-05-07T07:13:36;18.40;82.40
76172;DHT22;64929;51.178;4.138;2023-05-07T07:16:02;18.30;82.80
76172;DHT22;64929;51.178;4.138;2023-05-07T07:18:28;18.30;83.60
76172;DHT22;64929;51.178;4.138;2023-05-07T07:20:54;18.30;84.90
76172;DHT22;64929;51.178;4.138;2023-05-07T07:23:19;18.20;86.80
76172;DHT22;64929;51.178;4.138;2023-05-07T07:25:45;18.30;85.20
76172;DHT22;64929;51.178;4.138;2023-05-07T07:28:11;18.20;84.40
76172;DHT22;64929;51.178;4.138;2023-05-07T07:30:37;18.20;85.00
76172;DHT22;64929;51.178;4.138;2023-05-07T07:33:03;18.50;83.20
76172;DHT22;64929;51.178;4.138;2023-05-07T07:35:29;18.60;83.70
76172;DHT22;64929;51.178;4.138;2023-05-07T07:37:55;18.70;84.20
76172;DHT22;64929;51.178;4.138;2023-05-07T07:40:21;18.60;84.90
76172;DHT22;64929;51.178;4.138;2023-05-07T07:42:47;18.70;83.80
76172;DHT22;64929;51.178;4.138;2023-05-07T07:45:12;18.80;83.00
76172;DHT22;64929;51.178;4.138;2023-05-07T07:47:39;18.90;82.80
76172;DHT22;64929;51.178;4.138;2023-05-07T07:50:06;18.90;83.30
76172;DHT22;64929;51.178;4.138;2023-05-07T07:52:32;19.00;84.00
76172;DHT22;64929;51.178;4.138;2023-05-07T07:54:58;18.80;84.20
76172;DHT22;64929;51.178;4.138;2023-05-07T07:57:24;18.90;83.80
76172;DHT22;64929;51.178;4.138;2023-05-07T07:59:50;18.90;83.90
76172;DHT22;64929;51.178;4.138;2023-05-07T08:02:16;18.80;83.40
76172;DHT22;64929;51.178;4.138;2023-05-07T08:04:43;18.60;85.00
76172;DHT22;64929;51.178;4.138;2023-05-07T08:07:09;18.50;84.60
76172;DHT22;64929;51.178;4.138;2023-05-07T08:09:36;18.70;84.40
76172;DHT22;64929;51.178;4.138;2023-05-07T08:12:02;18.60;85.10
76172;DHT22;64929;51.178;4.138;2023-05-07T08:14:28;18.60;85.10
76172;DHT22;64929;51.178;4.138;2023-05-07T08:16:54;18.50;85.40
76172;DHT22;64929;51.178;4.138;2023-05-07T08:19:20;18.50;86.00
76172;DHT22;64929;51.178;4.138;2023-05-07T08:21:47;18.40;85.00
76172;DHT22;64929;51.178;4.138;2023-05-07T08:24:14;18.50;84.30
76172;DHT22;64929;51.178;4.138;2023-05-07T08:26:40;18.50;85.60
76172;DHT22;64929;51.178;4.138;2023-05-07T08:29:06;18.40;87.00
76172;DHT22;64929;51.178;4.138;2023-05-07T08:31:32;18.40;87.70
76172;DHT22;64929;51.178;4.138;2023-05-07T08:33:58;18.30;87.30
76172;DHT22;64929;51.178;4.138;2023-05-07T08:36:24;18.20;87.00
76172;DHT22;64929;51.178;4.138;2023-05-07T08:38:51;18.20;86.50
76172;DHT22;64929;51.178;4.138;2023-05-07T08:41:17;18.10;87.30
76172;DHT22;64929;51.178;4.138;2023-05-07T08:43:47;18.30;86.00
76172;DHT22;64929;51.178;4.138;2023-05-07T08:46:18;18.20;87.50
76172;DHT22;64929;51.178;4.138;2023-05-07T08:48:45;18.40;86.60
76172;DHT22;64929;51.178;4.138;2023-05-07T08:51:15;18.30;86.60
76172;DHT22;64929;51.178;4.138;2023-05-07T08:53:41;18.30;87.30
76172;DHT22;64929;51.178;4.138;2023-05-07T08:56:09;18.20;88.10
76172;DHT22;64929;51.178;4.138;2023-05-07T08:58:35;18.40;87.80
76172;DHT22;64929;51.178;4.138;2023-05-07T09:01:05;18.20;89.30
76172;DHT22;64929;51.178;4.138;2023-05-07T09:03:32;18.30;88.00
76172;DHT22;64929;51.178;4.138;2023-05-07T09:05:58;18.10;89.10
76172;DHT22;64929;51.178;4.138;2023-05-07T09:08:27;18.20;88.30
76172;DHT22;64929;51.178;4.138;2023-05-07T09:10:53;18.20;89.30
76172;DHT22;64929;51.178;4.138;2023-05-07T09:13:19;18.30;88.40
76172;DHT22;64929;51.178;4.138;2023-05-07T09:15:45;18.50;87.20
76172;DHT22;64929;51.178;4.138;2023-05-07T09:18:12;18.40;87.70
76172;DHT22;64929;51.178;4.138;2023-05-07T09:20:41;18.40;88.90
76172;DHT22;64929;51.178;4.138;2023-05-07T09:23:08;18.40;88.40
76172;DHT22;64929;51.178;4.138;2023-05-07T09:25:34;18.40;87.60
76172;DHT22;64929;51.178;4.138;2023-05-07T09:28:01;18.40;88.70
76172;DHT22;64929;51.178;4.138;2023-05-07T09:30:31;18.40;88.60
76172;DHT22;64929;51.178;4.138;2023-05-07T09:32:58;18.50;89.20
76172;DHT22;64929;51.178;4.138;2023-05-07T09:35:25;18.60;88.20
76172;DHT22;64929;51.178;4.138;2023-05-07T09:37:57;18.40;88.20
76172;DHT22;64929;51.178;4.138;2023-05-07T09:40:25;18.20;88.50
76172;DHT22;64929;51.178;4.138;2023-05-07T09:42:52;18.20;88.70
76172;DHT22;64929;51.178;4.138;2023-05-07T09:45:28;18.40;88.40
76172;DHT22;64929;51.178;4.138;2023-05-07T09:47:55;18.30;89.10
76172;DHT22;64929;51.178;4.138;2023-05-07T09:50:26;18.10;89.70
76172;DHT22;64929;51.178;4.138;2023-05-07T09:52:54;18.10;89.80
76172;DHT22;64929;51.178;4.138;2023-05-07T09:55:21;18.30;89.90
76172;DHT22;64929;51.178;4.138;2023-05-07T09:57:50;18.40;89.20
76172;DHT22;64929;51.178;4.138;2023-05-07T10:00:20;18.40;89.10
76172;DHT22;64929;51.178;4.138;2023-05-07T10:02:53;18.60;89.10
76172;DHT22;64929;51.178;4.138;2023-05-07T10:05:22;18.80;87.60
76172;DHT22;64929;51.178;4.138;2023-05-07T10:07:48;18.80;86.30
76172;DHT22;64929;51.178;4.138;2023-05-07T10:10:15;18.70;87.80
76172;DHT22;64929;51.178;4.138;2023-05-07T10:12:41;18.60;89.00
76172;DHT22;64929;51.178;4.138;2023-05-07T10:15:11;18.60;88.20
76172;DHT22;64929;51.178;4.138;2023-05-07T10:17:38;18.60;88.40
76172;DHT22;64929;51.178;4.138;2023-05-07T10:20:06;18.40;89.30
76172;DHT22;64929;51.178;4.138;2023-05-07T10:22:43;18.40;89.70
76172;DHT22;64929;51.178;4.138;2023-05-07T10:25:18;18.40;89.90
76172;DHT22;64929;51.178;4.138;2023-05-07T10:27:47;18.50;89.10
76172;DHT22;64929;51.178;4.138;2023-05-07T10:30:38;18.60;88.10
76172;DHT22;64929;51.178;4.138;2023-05-07T10:33:07;18.80;88.50
76172;DHT22;64929;51.178;4.138;2023-05-07T10:35:42;18.80;89.10
76172;DHT22;64929;51.178;4.138;2023-05-07T10:38:08;18.70;89.50
76172;DHT22;64929;51.178;4.138;2023-05-07T10:40:34;18.80;88.90
76172;DHT22;64929;51.178;4.138;2023-05-07T10:43:03;18.80;89.10
76172;DHT22;64929;51.178;4.138;2023-05-07T10:45:32;18.70;90.10
76172;DHT22;64929;51.178;4.138;2023-05-07T10:48:13;18.50;89.90
76172;DHT22;64929;51.178;4.138;2023-05-07T10:50:40;18.50;90.30
76172;DHT22;64929;51.178;4.138;2023-05-07T10:58:44;18.60;90.10
76172;DHT22;64929;51.178;4.138;2023-05-07T11:01:10;19.00;88.40
76172;DHT22;64929;51.178;4.138;2023-05-07T11:04:12;19.10;87.40
76172;DHT22;64929;51.178;4.138;2023-05-07T11:06:38;19.30;85.50
76172;DHT22;64929;51.178;4.138;2023-05-07T11:09:04;19.00;86.30
76172;DHT22;64929;51.178;4.138;2023-05-07T11:11:49;19.00;86.30
76172;DHT22;64929;51.178;4.138;2023-05-07T11:14:43;19.20;87.00
76172;DHT22;64929;51.178;4.138;2023-05-07T11:17:10;19.30;86.80
76172;DHT22;64929;51.178;4.138;2023-05-07T11:19:50;19.30;85.20
76172;DHT22;64929;51.178;4.138;2023-05-07T11:25:02;19.30;84.60
76172;DHT22;64929;51.178;4.138;2023-05-07T11:27:28;19.40;85.40
76172;DHT22;64929;51.178;4.138;2023-05-07T11:29:55;19.50;84.20
76172;DHT22;64929;51.178;4.138;2023-05-07T11:32:28;19.30;87.10
76172;DHT22;64929;51.178;4.138;2023-05-07T11:34:55;19.40;85.10
76172;DHT22;64929;51.178;4.138;2023-05-07T11:37:25;19.60;84.30
76172;DHT22;64929;51.178;4.138;2023-05-07T11:40:03;19.50;84.90
76172;DHT22;64929;51.178;4.138;2023-05-07T11:42:37;19.50;85.40
76172;DHT22;64929;51.178;4.138;2023-05-07T11:45:03;19.70;86.00
76172;DHT22;64929;51.178;4.138;2023-05-07T11:47:33;19.90;83.80
76172;DHT22;64929;51.178;4.138;2023-05-07T11:50:05;20.00;82.60
76172;DHT22;64929;51.178;4.138;2023-05-07T11:52:38;20.00;81.60
76172;DHT22;64929;51.178;4.138;2023-05-07T11:55:07;19.70;82.20
76172;DHT22;64929;51.178;4.138;2023-05-07T11:57:33;19.50;82.30
76172;DHT22;64929;51.178;4.138;2023-05-07T12:00:01;19.50;84.20
76172;DHT22;64929;51.178;4.138;2023-05-07T12:02:30;19.50;84.30
76172;DHT22;64929;51.178;4.138;2023-05-07T12:04:56;19.50;85.60
76172;DHT22;64929;51.178;4.138;2023-05-07T12:07:23;19.50;85.50
76172;DHT22;64929;51.178;4.138;2023-05-07T12:09:50;19.80;85.20
76172;DHT22;64929;51.178;4.138;2023-05-07T12:12:15;20.10;81.00
76172;DHT22;64929;51.178;4.138;2023-05-07T12:14:43;20.20;82.70
76172;DHT22;64929;51.178;4.138;2023-05-07T12:17:11;20.20;83.50
76172;DHT22;64929;51.178;4.138;2023-05-07T12:19:40;20.30;79.80
76172;DHT22;64929;51.178;4.138;2023-05-07T12:22:10;20.30;80.80
76172;DHT22;64929;51.178;4.138;2023-05-07T12:24:50;20.40;81.50
76172;DHT22;64929;51.178;4.138;2023-05-07T12:27:21;20.40;79.60
76172;DHT22;64929;51.178;4.138;2023-05-07T12:29:47;20.50;79.70
76172;DHT22;64929;51.178;4.138;2023-05-07T12:32:18;20.50;78.20
76172;DHT22;64929;51.178;4.138;2023-05-07T12:34:44;20.40;79.50
76172;DHT22;64929;51.178;4.138;2023-05-07T12:37:11;20.20;81.00
76172;DHT22;64929;51.178;4.138;2023-05-07T12:39:38;20.20;81.80
76172;DHT22;64929;51.178;4.138;2023-05-07T12:42:04;20.30;81.80
76172;DHT22;64929;51.178;4.138;2023-05-07T12:44:31;20.40;80.30
76172;DHT22;64929;51.178;4.138;2023-05-07T12:47:09;20.40;77.80
76172;DHT22;64929;51.178;4.138;2023-05-07T12:49:35;20.20;80.80
76172;DHT22;64929;51.178;4.138;2023-05-07T12:52:03;20.40;80.70
76172;DHT22;64929;51.178;4.138;2023-05-07T12:54:32;20.30;79.90
76172;DHT22;64929;51.178;4.138;2023-05-07T12:57:08;20.60;77.90
76172;DHT22;64929;51.178;4.138;2023-05-07T12:59:36;20.60;77.70
76172;DHT22;64929;51.178;4.138;2023-05-07T13:02:02;20.90;76.90
76172;DHT22;64929;51.178;4.138;2023-05-07T13:04:28;21.20;77.80
76172;DHT22;64929;51.178;4.138;2023-05-07T13:06:54;21.20;75.40
76172;DHT22;64929;51.178;4.138;2023-05-07T13:09:20;21.10;76.60
76172;DHT22;64929;51.178;4.138;2023-05-07T13:11:45;20.80;76.70
76172;DHT22;64929;51.178;4.138;2023-05-07T13:14:11;21.10;76.50
76172;DHT22;64929;51.178;4.138;2023-05-07T13:16:37;21.20;74.70
76172;DHT22;64929;51.178;4.138;2023-05-07T13:19:03;21.00;75.00
76172;DHT22;64929;51.178;4.138;2023-05-07T13:21:29;20.90;75.30
76172;DHT22;64929;51.178;4.138;2023-05-07T13:23:57;20.80;75.40
76172;DHT22;64929;51.178;4.138;2023-05-07T13:26:23;20.40;77.50
76172;DHT22;64929;51.178;4.138;2023-05-07T13:28:50;20.30;77.10
76172;DHT22;64929;51.178;4.138;2023-05-07T13:31:19;20.10;77.80
76172;DHT22;64929;51.178;4.138;2023-05-07T13:33:46;19.90;79.30
76172;DHT22;64929;51.178;4.138;2023-05-07T13:36:12;19.70;82.20
76172;DHT22;64929;51.178;4.138;2023-05-07T13:38:38;19.60;82.20
76172;DHT22;64929;51.178;4.138;2023-05-07T13:41:04;19.50;83.80
76172;DHT22;64929;51.178;4.138;2023-05-07T13:43:29;19.30;86.40
76172;DHT22;64929;51.178;4.138;2023-05-07T13:45:55;19.20;86.60
76172;DHT22;64929;51.178;4.138;2023-05-07T13:48:21;19.20;87.20
76172;DHT22;64929;51.178;4.138;2023-05-07T13:50:46;19.50;85.80
76172;DHT22;64929;51.178;4.138;2023-05-07T13:53:12;19.50;86.90
76172;DHT22;64929;51.178;4.138;2023-05-07T13:55:38;19.60;86.40
76172;DHT22;64929;51.178;4.138;2023-05-07T13:58:03;19.90;81.60
76172;DHT22;64929;51.178;4.138;2023-05-07T14:00:29;20.00;82.00
76172;DHT22;64929;51.178;4.138;2023-05-07T14:02:56;20.20;80.40
76172;DHT22;64929;51.178;4.138;2023-05-07T14:05:22;20.10;80.80
76172;DHT22;64929;51.178;4.138;2023-05-07T14:07:50;20.20;79.40
76172;DHT22;64929;51.178;4.138;2023-05-07T14:10:17;20.20;80.10
76172;DHT22;64929;51.178;4.138;2023-05-07T14:12:44;20.30;78.20
76172;DHT22;64929;51.178;4.138;2023-05-07T14:15:10;20.30;78.60
76172;DHT22;64929;51.178;4.138;2023-05-07T14:17:36;20.50;79.00
76172;DHT22;64929;51.178;4.138;2023-05-07T14:20:02;20.50;80.00
76172;DHT22;64929;51.178;4.138;2023-05-07T14:22:28;20.50;80.80
76172;DHT22;64929;51.178;4.138;2023-05-07T14:24:54;20.80;75.90
76172;DHT22;64929;51.178;4.138;2023-05-07T14:27:20;21.10;75.00
76172;DHT22;64929;51.178;4.138;2023-05-07T14:29:45;21.30;76.20
76172;DHT22;64929;51.178;4.138;2023-05-07T14:32:18;21.60;76.50
76172;DHT22;64929;51.178;4.138;2023-05-07T14:34:45;21.90;72.70
76172;DHT22;64929;51.178;4.138;2023-05-07T14:37:11;22.10;71.20
76172;DHT22;64929;51.178;4.138;2023-05-07T14:39:36;21.90;71.30
76172;DHT22;64929;51.178;4.138;2023-05-07T14:42:03;21.60;73.20
76172;DHT22;64929;51.178;4.138;2023-05-07T14:44:28;21.50;73.20
76172;DHT22;64929;51.178;4.138;2023-05-07T14:46:54;21.80;71.80
76172;DHT22;64929;51.178;4.138;2023-05-07T14:49:20;22.10;70.60
76172;DHT22;64929;51.178;4.138;2023-05-07T14:51:46;22.60;70.00
76172;DHT22;64929;51.178;4.138;2023-05-07T14:54:13;23.10;71.20
76172;DHT22;64929;51.178;4.138;2023-05-07T14:56:40;23.20;68.50
76172;DHT22;64929;51.178;4.138;2023-05-07T14:59:06;22.70;66.30
76172;DHT22;64929;51.178;4.138;2023-05-07T15:01:32;22.40;69.30
76172;DHT22;64929;51.178;4.138;2023-05-07T15:03:59;22.70;67.00
76172;DHT22;64929;51.178;4.138;2023-05-07T15:06:25;22.80;65.10
76172;DHT22;64929;51.178;4.138;2023-05-07T15:08:52;22.80;68.20
76172;DHT22;64929;51.178;4.138;2023-05-07T15:11:17;23.30;66.00
76172;DHT22;64929;51.178;4.138;2023-05-07T15:13:43;23.60;64.20
76172;DHT22;64929;51.178;4.138;2023-05-07T15:16:09;23.60;66.00
76172;DHT22;64929;51.178;4.138;2023-05-07T15:18:35;23.90;66.80
76172;DHT22;64929;51.178;4.138;2023-05-07T15:21:01;23.70;65.30
76172;DHT22;64929;51.178;4.138;2023-05-07T15:23:27;24.10;66.50
76172;DHT22;64929;51.178;4.138;2023-05-07T15:25:53;24.00;66.30
76172;DHT22;64929;51.178;4.138;2023-05-07T15:28:19;24.20;65.00
76172;DHT22;64929;51.178;4.138;2023-05-07T15:30:45;24.10;64.20
76172;DHT22;64929;51.178;4.138;2023-05-07T15:33:11;24.30;62.70
76172;DHT22;64929;51.178;4.138;2023-05-07T15:35:36;24.10;62.50
76172;DHT22;64929;51.178;4.138;2023-05-07T15:38:02;23.80;64.80